createdAt,value
2023-05-10T00:00:36.022Z,99.14
2023-05-10T00:03:02.759Z,99.15
2023-05-10T00:05:29.485Z,99.13
2023-05-10T00:07:56.332Z,99.14
2023-05-10T00:10:23.062Z,99.15
2023-05-10T00:12:49.933Z,99.14
2023-05-10T00:15:16.436Z,99.09
2023-05-10T00:17:43.219Z,99.09
2023-05-10T00:20:10.612Z,99.11
2023-05-10T00:22:37.246Z,99.11
2023-05-10T00:25:04.173Z,99.16
2023-05-10T00:27:33.765Z,99.16
2023-05-10T00:30:07.336Z,99.16
2023-05-10T00:32:33.893Z,99.16
2023-05-10T00:35:00.522Z,99.24
2023-05-10T00:37:27.196Z,99.20
2023-05-10T00:39:54.225Z,99.29
2023-05-10T00:42:20.750Z,99.31
2023-05-10T00:44:47.803Z,99.27
2023-05-10T00:47:14.891Z,99.30
2023-05-10T00:49:42.693Z,99.27
2023-05-10T00:52:10.170Z,99.25
2023-05-10T00:54:37.492Z,99.24
2023-05-10T00:57:04.338Z,99.26
2023-05-10T00:59:30.985Z,99.25
2023-05-10T01:01:58.993Z,99.24
2023-05-10T01:04:28.599Z,99.19
2023-05-10T01:06:55.451Z,99.26
2023-05-10T01:09:23.361Z,99.25
2023-05-10T01:11:50.258Z,99.18
2023-05-10T01:14:19.796Z,99.20
2023-05-10T01:16:48.077Z,99.21
2023-05-10T01:19:22.920Z,99.22
2023-05-10T01:22:06.270Z,99.20
2023-05-10T01:25:10.389Z,99.18
2023-05-10T01:27:53.177Z,99.19
2023-05-10T01:30:43.059Z,99.17
2023-05-10T01:33:17.204Z,99.14
2023-05-10T01:36:02.497Z,99.18
2023-05-10T01:38:38.551Z,99.14
2023-05-10T01:41:25.984Z,99.07
2023-05-10T01:44:02.268Z,98.97
2023-05-10T01:46:36.292Z,98.87
2023-05-10T01:49:05.047Z,98.77
2023-05-10T01:51:45.749Z,98.78
2023-05-10T01:54:14.188Z,98.83
2023-05-10T01:56:43.253Z,98.90
2023-05-10T01:59:18.181Z,98.93
2023-05-10T02:01:46.494Z,98.94
2023-05-10T02:04:16.747Z,98.90
2023-05-10T02:06:44.586Z,98.93
2023-05-10T02:09:12.445Z,98.97
2023-05-10T02:11:40.255Z,99.07
2023-05-10T02:14:10.654Z,99.08
2023-05-10T02:16:39.141Z,99.07
2023-05-10T02:19:06.945Z,99.06
2023-05-10T02:21:34.627Z,99.05
2023-05-10T02:24:04.189Z,98.95
2023-05-10T02:26:32.441Z,98.90
2023-05-10T02:28:59.843Z,98.94
2023-05-10T02:31:27.392Z,98.99
2023-05-10T02:33:55.101Z,98.94
2023-05-10T02:36:22.307Z,98.94
2023-05-10T02:38:51.393Z,98.82
2023-05-10T02:41:19.480Z,98.85
2023-05-10T02:43:48.075Z,98.96
2023-05-10T02:46:14.696Z,98.95
2023-05-10T02:48:41.385Z,98.93
2023-05-10T02:51:09.356Z,98.95
2023-05-10T02:53:39.502Z,98.93
2023-05-10T02:56:15.105Z,98.93
2023-05-10T02:58:41.905Z,98.83
2023-05-10T03:01:08.836Z,98.89
2023-05-10T03:03:35.571Z,98.92
2023-05-10T03:06:02.480Z,98.89
2023-05-10T03:08:30.486Z,98.83
2023-05-10T03:11:25.156Z,98.77
2023-05-10T03:14:10.401Z,98.75
2023-05-10T03:16:45.045Z,98.69
2023-05-10T03:19:33.667Z,98.64
2023-05-10T03:22:03.431Z,98.67
2023-05-10T03:24:31.325Z,98.46
2023-05-10T03:27:03.934Z,98.52
2023-05-10T03:29:31.901Z,98.55
2023-05-10T03:32:00.763Z,98.39
2023-05-10T03:34:27.704Z,98.13
2023-05-10T03:36:54.398Z,97.45
2023-05-10T03:39:22.292Z,97.57
2023-05-10T03:41:48.838Z,97.53
2023-05-10T03:44:15.378Z,97.55
2023-05-10T03:46:42.120Z,97.21
2023-05-10T03:49:08.659Z,97.30
2023-05-10T03:51:35.609Z,97.51
2023-05-10T03:54:02.158Z,97.60
2023-05-10T03:56:28.750Z,97.54
2023-05-10T03:58:55.249Z,97.48
2023-05-10T04:01:21.753Z,97.26
2023-05-10T04:03:48.436Z,97.29
2023-05-10T04:06:15.070Z,97.36
2023-05-10T04:08:41.718Z,97.04
2023-05-10T04:11:10.229Z,96.83
2023-05-10T04:13:37.413Z,96.91
2023-05-10T04:16:04.368Z,96.97
2023-05-10T04:18:31.720Z,96.99
2023-05-10T04:20:58.470Z,96.62
2023-05-10T04:23:25.129Z,96.73
2023-05-10T04:25:51.658Z,96.44
2023-05-10T04:28:18.077Z,96.56
2023-05-10T04:30:44.698Z,96.68
2023-05-10T04:33:11.298Z,96.69
2023-05-10T04:35:37.960Z,96.53
2023-05-10T04:38:04.961Z,96.31
2023-05-10T04:40:31.473Z,96.26
2023-05-10T04:42:58.014Z,96.22
2023-05-10T04:45:24.504Z,96.17
2023-05-10T04:47:51.105Z,96.26
2023-05-10T04:50:18.576Z,95.80
2023-05-10T04:52:45.302Z,95.73
2023-05-10T04:55:11.934Z,95.37
2023-05-10T04:57:38.595Z,95.43
2023-05-10T05:00:06.547Z,95.40
2023-05-10T05:02:33.170Z,95.42
2023-05-10T05:04:59.776Z,95.15
2023-05-10T05:07:26.315Z,95.27
2023-05-10T05:09:52.872Z,95.19
2023-05-10T05:12:19.587Z,95.15
2023-05-10T05:14:46.177Z,95.00
2023-05-10T05:17:15.737Z,94.81
2023-05-10T05:19:42.266Z,94.64
2023-05-10T05:22:09.650Z,94.68
2023-05-10T05:24:39.265Z,94.66
2023-05-10T05:27:06.953Z,94.45
2023-05-10T05:29:34.020Z,93.85
2023-05-10T05:32:00.914Z,93.56
2023-05-10T05:34:27.996Z,93.47
2023-05-10T05:36:54.960Z,93.41
2023-05-10T05:39:21.467Z,93.81
2023-05-10T05:41:48.075Z,93.87
2023-05-10T05:44:14.596Z,94.11
2023-05-10T05:46:41.127Z,94.05
2023-05-10T05:49:07.694Z,93.02
2023-05-10T05:51:35.645Z,93.09
2023-05-10T05:54:02.747Z,92.44
2023-05-10T05:56:29.466Z,92.61
2023-05-10T05:58:56.362Z,92.77
2023-05-10T06:01:22.907Z,92.82
2023-05-10T06:03:51.018Z,92.12
2023-05-10T06:06:19.204Z,92.08
2023-05-10T06:08:45.690Z,91.88
2023-05-10T06:11:12.181Z,92.17
2023-05-10T06:13:38.739Z,91.89
2023-05-10T06:16:05.733Z,91.62
2023-05-10T06:18:32.525Z,91.45
2023-05-10T06:20:59.030Z,91.39
2023-05-10T06:23:27.388Z,91.60
2023-05-10T06:25:54.001Z,91.73
2023-05-10T06:28:20.507Z,92.05
2023-05-10T06:32:36.152Z,92.24
2023-05-10T06:35:03.063Z,92.51
2023-05-10T06:37:29.659Z,92.28
2023-05-10T06:39:56.460Z,92.05
2023-05-10T06:42:23.464Z,91.72
2023-05-10T06:44:50.040Z,91.95
2023-05-10T06:47:16.512Z,91.88
2023-05-10T06:49:43.130Z,91.98
2023-05-10T06:52:09.726Z,92.56
2023-05-10T06:54:36.560Z,92.74
2023-05-10T06:57:07.158Z,93.44
2023-05-10T06:59:37.544Z,93.84
2023-05-10T07:02:04.626Z,94.33
2023-05-10T07:04:31.268Z,94.63
2023-05-10T07:06:58.771Z,95.25
2023-05-10T07:09:25.450Z,95.57
2023-05-10T07:11:51.968Z,95.77
2023-05-10T07:14:18.626Z,95.77
2023-05-10T07:16:45.733Z,96.20
2023-05-10T07:19:12.651Z,96.26
2023-05-10T07:21:41.332Z,96.34
2023-05-10T07:24:07.856Z,96.38
2023-05-10T07:26:34.458Z,96.31
2023-05-10T07:29:01.139Z,96.14
2023-05-10T07:31:27.664Z,96.31
2023-05-10T07:33:54.297Z,96.41
2023-05-10T07:36:20.899Z,96.49
2023-05-10T07:38:47.433Z,96.42
2023-05-10T07:41:14.184Z,96.52
2023-05-10T07:43:41.044Z,96.39
2023-05-10T07:46:07.776Z,96.27
2023-05-10T07:48:34.329Z,96.20
2023-05-10T07:51:00.782Z,95.71
2023-05-10T07:53:27.875Z,96.03
2023-05-10T07:56:00.359Z,96.06
2023-05-10T07:58:27.147Z,95.78
2023-05-10T08:00:53.796Z,95.96
2023-05-10T08:03:20.614Z,95.81
2023-05-10T08:05:47.252Z,95.43
2023-05-10T08:08:13.998Z,94.13
2023-05-10T08:10:40.691Z,94.39
2023-05-10T08:13:07.215Z,94.34
2023-05-10T08:15:33.753Z,93.53
2023-05-10T08:18:00.495Z,94.11
2023-05-10T08:20:27.074Z,94.23
2023-05-10T08:22:54.291Z,94.18
2023-05-10T08:25:20.878Z,93.57
2023-05-10T08:27:47.441Z,93.91
2023-05-10T08:30:14.397Z,94.02
2023-05-10T08:32:41.113Z,94.07
2023-05-10T08:35:07.893Z,93.88
2023-05-10T08:37:34.432Z,93.82
2023-05-10T08:40:00.921Z,93.94
2023-05-10T08:42:31.313Z,93.70
2023-05-10T08:45:00.347Z,93.60
2023-05-10T08:47:27.348Z,93.79
2023-05-10T08:49:55.715Z,93.16
2023-05-10T08:52:25.073Z,93.42
2023-05-10T08:54:51.824Z,93.66
2023-05-10T08:57:19.740Z,94.30
2023-05-10T08:59:47.284Z,94.43
2023-05-10T09:02:16.631Z,94.60
2023-05-10T09:04:44.820Z,94.38
2023-05-10T09:07:11.748Z,94.19
2023-05-10T09:09:38.357Z,93.55
2023-05-10T09:12:05.387Z,93.49
2023-05-10T09:14:35.515Z,93.48
2023-05-10T09:17:02.476Z,93.60
2023-05-10T09:19:29.211Z,93.01
2023-05-10T09:21:56.140Z,93.08
2023-05-10T09:24:27.186Z,91.12
2023-05-10T09:26:53.842Z,91.39
2023-05-10T09:29:20.425Z,91.54
2023-05-10T09:31:52.181Z,92.04
2023-05-10T09:34:21.374Z,92.02
2023-05-10T09:36:56.064Z,91.66
2023-05-10T09:39:31.690Z,90.84
2023-05-10T09:41:59.566Z,91.24
2023-05-10T09:44:27.125Z,92.34
2023-05-10T09:46:53.847Z,92.22
2023-05-10T09:49:22.268Z,93.01
2023-05-10T09:52:00.420Z,91.83
2023-05-10T09:54:27.095Z,91.89
2023-05-10T09:56:53.627Z,90.88
2023-05-10T09:59:20.369Z,90.84
2023-05-10T10:01:53.799Z,90.36
2023-05-10T10:04:21.566Z,90.89
2023-05-10T10:06:59.643Z,89.77
2023-05-10T10:09:26.813Z,89.78
2023-05-10T10:11:53.640Z,89.03
2023-05-10T10:14:21.177Z,88.79
2023-05-10T10:17:05.079Z,89.06
2023-05-10T10:19:36.448Z,88.70
2023-05-10T10:22:03.874Z,88.91
2023-05-10T10:24:30.475Z,88.00
2023-05-10T10:27:05.381Z,88.73
2023-05-10T10:29:45.764Z,87.44
2023-05-10T10:32:21.814Z,87.58
2023-05-10T10:34:49.035Z,87.13
2023-05-10T10:37:15.758Z,87.17
2023-05-10T10:39:42.407Z,85.82
2023-05-10T10:42:08.954Z,85.41
2023-05-10T10:44:39.227Z,84.47
2023-05-10T10:47:34.041Z,85.43
2023-05-10T10:50:01.102Z,84.85
2023-05-10T10:52:38.661Z,84.22
2023-05-10T10:55:15.822Z,84.30
2023-05-10T10:57:42.526Z,83.74
2023-05-10T11:00:24.943Z,82.69
2023-05-10T11:02:59.059Z,82.78
2023-05-10T11:05:28.620Z,80.20
2023-05-10T11:07:56.662Z,80.83
2023-05-10T11:10:24.649Z,80.83
2023-05-10T11:13:05.291Z,78.93
2023-05-10T11:15:40.246Z,74.80
2023-05-10T11:18:30.557Z,76.30
2023-05-10T11:21:08.062Z,78.05
2023-05-10T11:23:53.448Z,78.61
2023-05-10T11:26:26.330Z,79.32
2023-05-10T11:28:56.329Z,78.78
2023-05-10T11:31:23.776Z,79.05
2023-05-10T11:33:57.942Z,80.31
2023-05-10T11:36:27.038Z,81.50
2023-05-10T11:38:54.069Z,81.86
2023-05-10T11:41:24.003Z,81.88
2023-05-10T11:43:52.675Z,81.50
2023-05-10T11:46:21.709Z,81.04
2023-05-10T11:48:51.902Z,79.76
2023-05-10T11:51:26.256Z,79.50
2023-05-10T11:53:58.011Z,79.26
2023-05-10T11:56:24.859Z,78.76
2023-05-10T11:58:59.049Z,77.15
2023-05-10T12:01:27.361Z,72.36
2023-05-10T12:03:55.865Z,73.27
2023-05-10T12:06:23.033Z,70.32
2023-05-10T12:08:54.647Z,71.00
2023-05-10T12:11:22.785Z,69.62
2023-05-10T12:13:50.849Z,71.07
2023-05-10T12:16:22.175Z,70.84
2023-05-10T12:18:53.354Z,70.04
2023-05-10T12:21:22.025Z,69.88
2023-05-10T12:23:51.710Z,68.36
2023-05-10T12:26:18.695Z,68.09
2023-05-10T12:28:45.393Z,66.61
2023-05-10T12:31:11.990Z,66.77
2023-05-10T12:33:40.624Z,67.97
2023-05-10T12:36:07.768Z,68.74
2023-05-10T12:38:38.999Z,66.52
2023-05-10T12:41:10.829Z,64.78
2023-05-10T12:43:38.647Z,65.11
2023-05-10T12:46:09.301Z,64.07
2023-05-10T12:48:37.356Z,64.77
2023-05-10T12:51:05.428Z,65.71
2023-05-10T12:53:32.484Z,64.31
2023-05-10T12:55:58.968Z,65.09
2023-05-10T12:58:34.906Z,65.58
2023-05-10T13:01:03.182Z,64.54
2023-05-10T13:03:30.170Z,64.28
2023-05-10T13:05:56.766Z,65.24
2023-05-10T13:08:23.617Z,65.44
2023-05-10T13:10:50.394Z,65.78
2023-05-10T13:13:17.039Z,65.36
2023-05-10T13:15:43.550Z,66.13
2023-05-10T13:18:10.234Z,66.79
2023-05-10T13:20:36.800Z,65.17
2023-05-10T13:23:03.750Z,64.35
2023-05-10T13:25:30.967Z,63.21
2023-05-10T13:27:57.712Z,60.50
2023-05-10T13:30:25.184Z,61.10
2023-05-10T13:32:51.955Z,62.99
2023-05-10T13:35:18.732Z,63.58
2023-05-10T13:37:45.346Z,64.16
2023-05-10T13:40:12.575Z,61.39
2023-05-10T13:42:39.335Z,62.15
2023-05-10T13:45:06.611Z,59.96
2023-05-10T13:47:33.205Z,60.98
2023-05-10T13:49:59.813Z,62.68
2023-05-10T13:52:27.299Z,64.11
2023-05-10T13:54:55.933Z,61.19
2023-05-10T13:57:23.084Z,61.03
2023-05-10T13:59:50.015Z,62.83
2023-05-10T14:02:16.756Z,64.96
2023-05-10T14:04:43.264Z,63.11
2023-05-10T14:07:09.899Z,63.70
2023-05-10T14:09:36.608Z,60.87
2023-05-10T14:12:03.223Z,63.42
2023-05-10T14:14:30.634Z,64.00
2023-05-10T14:16:57.355Z,63.80
2023-05-10T14:19:24.016Z,62.06
2023-05-10T14:21:50.625Z,63.37
2023-05-10T14:24:17.110Z,62.64
2023-05-10T14:26:43.606Z,61.16
2023-05-10T14:29:12.462Z,59.14
2023-05-10T14:31:39.549Z,58.67
2023-05-10T14:34:06.864Z,60.83
2023-05-10T14:36:33.636Z,64.70
2023-05-10T14:39:00.380Z,63.12
2023-05-10T14:41:27.047Z,63.42
2023-05-10T14:43:53.732Z,67.12
2023-05-10T14:46:20.826Z,66.92
2023-05-10T14:48:47.524Z,67.57
2023-05-10T14:51:14.328Z,67.27
2023-05-10T14:53:41.159Z,67.38
2023-05-10T14:56:08.121Z,67.01
2023-05-10T14:58:34.793Z,66.41
2023-05-10T15:01:02.228Z,67.02
2023-05-10T15:03:29.804Z,67.21
2023-05-10T15:05:58.593Z,68.01
2023-05-10T15:08:27.909Z,68.74
2023-05-10T15:10:56.414Z,69.58
2023-05-10T15:13:23.109Z,69.36
2023-05-10T15:15:49.741Z,69.04
2023-05-10T15:18:16.571Z,69.38
2023-05-10T15:20:43.349Z,69.58
2023-05-10T15:23:09.973Z,69.91
2023-05-10T15:25:38.184Z,69.50
2023-05-10T15:28:05.423Z,69.61
2023-05-10T15:30:32.223Z,70.61
2023-05-10T15:32:59.079Z,70.89
2023-05-10T15:35:27.288Z,70.89
2023-05-10T15:37:54.011Z,71.70
2023-05-10T15:40:20.716Z,71.96
2023-05-10T15:42:47.414Z,73.45
2023-05-10T15:45:14.158Z,72.75
2023-05-10T15:47:40.927Z,72.20
2023-05-10T15:50:08.447Z,72.39
2023-05-10T15:52:36.097Z,73.57
2023-05-10T15:55:03.578Z,76.99
2023-05-10T15:57:30.281Z,78.57
2023-05-10T15:59:56.789Z,79.62
2023-05-10T16:02:23.667Z,78.83
2023-05-10T16:04:50.332Z,81.91
2023-05-10T16:07:16.974Z,82.24
2023-05-10T16:09:44.004Z,81.77
2023-05-10T16:12:10.845Z,80.95
2023-05-10T16:14:37.381Z,84.01
2023-05-10T16:17:04.751Z,84.46
2023-05-10T16:19:31.966Z,86.23
2023-05-10T16:21:58.725Z,87.11
2023-05-10T16:24:26.355Z,88.00
2023-05-10T16:26:53.324Z,87.97
2023-05-10T16:29:20.033Z,87.91
2023-05-10T16:31:46.972Z,87.96
2023-05-10T16:34:13.713Z,88.19
2023-05-10T16:36:40.440Z,88.35
2023-05-10T16:39:07.058Z,87.86
2023-05-10T16:41:34.409Z,86.30
2023-05-10T16:44:01.507Z,84.19
2023-05-10T16:46:28.181Z,83.07
2023-05-10T16:48:54.774Z,81.04
2023-05-10T16:51:21.400Z,79.88
2023-05-10T16:53:47.995Z,77.26
2023-05-10T16:56:14.580Z,74.28
2023-05-10T16:58:41.296Z,72.08
2023-05-10T17:01:07.918Z,74.61
2023-05-10T17:03:34.894Z,71.85
2023-05-10T17:06:01.471Z,72.13
2023-05-10T17:08:28.150Z,71.08
2023-05-10T17:10:54.962Z,70.34
2023-05-10T17:13:21.603Z,71.36
2023-05-10T17:15:48.241Z,73.13
2023-05-10T17:18:15.002Z,72.91
2023-05-10T17:20:44.780Z,74.26
2023-05-10T17:23:11.829Z,74.11
2023-05-10T17:25:38.477Z,75.15
2023-05-10T17:28:05.620Z,76.45
2023-05-10T17:30:32.848Z,72.55
2023-05-10T17:33:00.419Z,72.40
2023-05-10T17:35:27.830Z,72.77
2023-05-10T17:37:54.354Z,77.10
2023-05-10T17:40:21.046Z,79.05
2023-05-10T17:42:47.832Z,79.05
2023-05-10T17:45:15.020Z,81.96
2023-05-10T17:47:41.735Z,82.51
2023-05-10T17:50:10.184Z,82.66
2023-05-10T17:52:37.482Z,81.40
2023-05-10T17:57:38.085Z,82.20
2023-05-10T18:00:06.544Z,83.11
2023-05-10T18:02:33.233Z,83.88
2023-05-10T18:05:01.404Z,83.56
2023-05-10T18:07:29.992Z,81.17
2023-05-10T18:09:57.495Z,78.49
2023-05-10T18:12:24.452Z,77.37
2023-05-10T18:14:51.298Z,77.48
2023-05-10T18:17:18.281Z,77.83
2023-05-10T18:19:44.817Z,78.86
2023-05-10T18:22:11.450Z,80.18
2023-05-10T18:24:39.486Z,81.85
2023-05-10T18:27:08.694Z,82.77
2023-05-10T18:29:36.104Z,82.74
2023-05-10T18:32:02.787Z,82.75
2023-05-10T18:34:29.280Z,82.26
2023-05-10T18:36:56.224Z,83.20
2023-05-10T18:39:22.756Z,84.55
2023-05-10T18:41:50.233Z,84.94
2023-05-10T18:44:16.915Z,85.32
2023-05-10T18:46:43.637Z,85.29
2023-05-10T18:49:10.288Z,85.60
2023-05-10T18:51:37.000Z,85.24
2023-05-10T18:54:03.576Z,85.27
2023-05-10T18:56:30.249Z,85.88
2023-05-10T18:58:56.857Z,85.88
2023-05-10T19:01:23.515Z,86.59
2023-05-10T19:03:50.109Z,86.47
2023-05-10T19:06:16.610Z,87.13
2023-05-10T19:08:43.059Z,87.27
2023-05-10T19:11:09.701Z,87.49
2023-05-10T19:13:36.413Z,87.82
2023-05-10T19:16:10.466Z,87.73
2023-05-10T19:18:38.910Z,87.63
2023-05-10T19:21:10.364Z,87.42
2023-05-10T19:23:41.967Z,87.51
2023-05-10T19:26:10.010Z,87.54
2023-05-10T19:28:37.002Z,87.94
2023-05-10T19:31:03.791Z,87.97
2023-05-10T19:33:30.686Z,87.73
2023-05-10T19:35:57.347Z,87.61
2023-05-10T19:38:25.405Z,87.67
2023-05-10T19:40:58.104Z,87.50
2023-05-10T19:43:29.925Z,87.90
2023-05-10T19:46:01.744Z,88.28
2023-05-10T19:48:37.873Z,88.44
2023-05-10T19:51:07.655Z,89.02
2023-05-10T19:53:35.204Z,89.16
2023-05-10T19:56:06.425Z,89.21
2023-05-10T19:58:33.734Z,89.69
2023-05-10T20:01:00.442Z,89.93
2023-05-10T20:03:27.387Z,89.96
2023-05-10T20:05:54.290Z,90.12
2023-05-10T20:08:20.831Z,90.27
2023-05-10T20:10:47.565Z,90.52
2023-05-10T20:13:14.182Z,90.75
2023-05-10T20:15:40.813Z,90.63
2023-05-10T20:18:07.543Z,91.08
2023-05-10T20:20:34.407Z,91.21
2023-05-10T20:23:00.880Z,91.57
2023-05-10T20:25:29.528Z,92.07
2023-05-10T20:27:56.012Z,92.29
2023-05-10T20:30:23.144Z,92.13
2023-05-10T20:32:49.674Z,92.33
2023-05-10T20:35:16.352Z,92.55
2023-05-10T20:37:43.068Z,92.78
2023-05-10T20:40:09.955Z,92.59
2023-05-10T20:42:36.504Z,92.58
2023-05-10T20:45:03.336Z,92.09
2023-05-10T20:47:29.949Z,92.20
2023-05-10T20:49:56.467Z,92.47
2023-05-10T20:52:24.526Z,92.54
2023-05-10T20:54:51.245Z,92.72
2023-05-10T20:57:17.831Z,92.98
2023-05-10T20:59:44.521Z,92.83
2023-05-10T21:02:11.156Z,92.83
2023-05-10T21:04:37.802Z,92.66
2023-05-10T21:07:04.341Z,92.94
2023-05-10T21:09:30.894Z,93.11
2023-05-10T21:11:57.993Z,93.22
2023-05-10T21:14:24.489Z,93.13
2023-05-10T21:16:51.348Z,93.11
2023-05-10T21:19:19.176Z,92.95
2023-05-10T21:21:46.008Z,92.78
2023-05-10T21:24:12.605Z,92.71
2023-05-10T21:26:39.248Z,92.84
2023-05-10T21:29:06.184Z,92.98
2023-05-10T21:31:33.053Z,93.10
2023-05-10T21:33:59.581Z,93.26
2023-05-10T21:36:26.156Z,93.44
2023-05-10T21:38:52.795Z,93.32
2023-05-10T21:41:19.538Z,92.93
2023-05-10T21:43:45.993Z,92.71
2023-05-10T21:46:14.293Z,92.64
2023-05-10T21:48:41.002Z,92.67
2023-05-10T21:51:07.498Z,92.64
2023-05-10T21:53:35.876Z,92.93
2023-05-10T21:56:02.478Z,93.13
2023-05-10T21:58:29.184Z,93.63
2023-05-10T22:00:56.055Z,93.23
2023-05-10T22:03:22.934Z,93.49
2023-05-10T22:05:49.540Z,93.35
2023-05-10T22:08:16.484Z,93.27
2023-05-10T22:10:43.041Z,93.23
2023-05-10T22:13:09.551Z,93.33
2023-05-10T22:15:36.694Z,92.96
2023-05-10T22:18:03.578Z,93.10
2023-05-10T22:20:30.066Z,92.74
2023-05-10T22:22:56.720Z,93.21
2023-05-10T22:25:23.291Z,93.34
2023-05-10T22:27:49.931Z,93.55
2023-05-10T22:30:17.135Z,93.47
2023-05-10T22:32:44.063Z,93.64
2023-05-10T22:35:10.668Z,93.46
2023-05-10T22:37:37.255Z,93.45
2023-05-10T22:40:04.207Z,93.43
2023-05-10T22:42:30.945Z,93.58
2023-05-10T22:44:58.757Z,93.60
2023-05-10T22:47:25.716Z,93.91
2023-05-10T22:49:52.523Z,94.01
2023-05-10T22:52:19.196Z,93.88
2023-05-10T22:54:45.757Z,94.04
2023-05-10T22:57:12.564Z,93.93
2023-05-10T22:59:39.347Z,94.13
2023-05-10T23:02:06.018Z,94.36
2023-05-10T23:04:32.559Z,94.10
2023-05-10T23:06:59.365Z,93.96
2023-05-10T23:09:25.879Z,93.55
2023-05-10T23:11:52.361Z,93.76
2023-05-10T23:14:18.884Z,93.46
2023-05-10T23:16:45.720Z,92.88
2023-05-10T23:19:12.325Z,92.31
2023-05-10T23:21:38.808Z,92.61
2023-05-10T23:24:06.292Z,91.79
2023-05-10T23:26:32.980Z,91.39
2023-05-10T23:29:00.651Z,91.12
2023-05-10T23:31:27.384Z,91.05
2023-05-10T23:33:54.999Z,91.06
2023-05-10T23:36:21.488Z,91.01
2023-05-10T23:38:47.963Z,90.80
2023-05-10T23:41:14.445Z,90.75
2023-05-10T23:43:40.919Z,90.84
2023-05-10T23:46:07.474Z,91.11
2023-05-10T23:48:34.028Z,90.85
2023-05-10T23:51:00.594Z,91.15
2023-05-10T23:53:27.084Z,91.32
2023-05-10T23:55:53.810Z,91.54
